Time;durP1;ratioP1;P1;durP2;ratioP2;P2;SDS_P1;SDS_P2;PMS_P1;PMS_P2;Temp;Humidity;BMP_temperature;BMP_pressure;BME280_temperature;BME280_humidity;BME280_pressure;Samples;Min_cycle;Max_cycle;Signal;HPM_P1;HPM_P2
2021/03/23 00:00:51;;;;;;;17.98;11.25;;;12.80;47.70;;;;;;5073634;28;20043;-71
2021/03/23 00:03:35;;;;;;;19.85;9.95;;;12.70;47.80;;;;;;5073775;28;20036;-72
2021/03/23 00:06:03;;;;;;;22.63;11.93;;;;;;;;;;5055050;28;20051;-70
2021/03/23 00:08:39;;;;;;;17.77;11.77;;;;;;;;;;5073348;28;20433;-70
2021/03/23 00:11:28;;;;;;;19.80;11.70;;;12.70;47.70;;;;;;5073654;28;20051;-72
2021/03/23 00:13:57;;;;;;;23.48;12.50;;;12.70;47.80;;;;;;5073459;28;20037;-71
2021/03/23 00:16:30;;;;;;;25.60;13.27;;;12.70;47.80;;;;;;5067022;28;20033;-71
2021/03/23 00:18:58;;;;;;;20.92;12.35;;;12.70;47.70;;;;;;5053260;28;20526;-71
2021/03/23 00:21:26;;;;;;;22.13;12.32;;;12.70;48.00;;;;;;5034496;28;20055;-71
2021/03/23 00:23:55;;;;;;;30.10;13.43;;;;;;;;;;5053260;28;20889;-69
2021/03/23 00:26:23;;;;;;;28.38;12.48;;;12.70;48.10;;;;;;5053265;28;20385;-72
2021/03/23 00:28:52;;;;;;;21.80;12.45;;;;;;;;;;5053074;28;20041;-70
2021/03/23 00:31:24;;;;;;;22.80;13.63;;;12.60;48.10;;;;;;5052931;28;20103;-72
2021/03/23 00:33:58;;;;;;;23.70;12.88;;;12.70;48.10;;;;;;5052859;28;20081;-70
2021/03/23 00:36:29;;;;;;;25.15;12.88;;;12.70;48.10;;;;;;5053561;28;20045;-71
2021/03/23 00:38:56;;;;;;;23.15;13.88;;;;;;;;;;5053695;28;20045;-71
2021/03/23 00:41:23;;;;;;;20.70;12.25;;;12.70;48.20;;;;;;5053097;28;20087;-71
2021/03/23 00:43:51;;;;;;;29.70;13.68;;;;;;;;;;5052471;28;20044;-70
2021/03/23 00:46:19;;;;;;;22.30;13.30;;;;;;;;;;5052498;28;20499;-70
2021/03/23 00:48:46;;;;;;;25.10;13.57;;;;;;;;;;5052340;28;20434;-71
2021/03/23 00:51:13;;;;;;;29.48;14.00;;;;;;;;;;5052441;28;20041;-70
2021/03/23 00:53:40;;;;;;;23.27;13.68;;;;;;;;;;5049053;28;20125;-72
2021/03/23 00:56:07;;;;;;;25.58;14.07;;;;;;;;;;5072623;28;20498;-72
2021/03/23 00:58:34;;;;;;;31.25;14.68;;;;;;;;;;5072746;28;20040;-71
2021/03/23 01:01:02;;;;;;;28.77;14.25;;;;;;;;;;5072289;28;20032;-71
2021/03/23 01:03:29;;;;;;;26.40;14.65;;;;;;;;;;5072077;28;20047;-70
2021/03/23 01:05:56;;;;;;;29.23;15.27;;;;;;;;;;5071896;28;20033;-71
2021/03/23 01:08:23;;;;;;;25.70;14.88;;;;;;;;;;5072239;28;20051;-72
2021/03/23 01:10:50;;;;;;;27.67;15.82;;;;;;;;;;5071972;28;20036;-71
2021/03/23 01:13:18;;;;;;;29.20;13.57;;;;;;;;;;5072255;28;20037;-72
2021/03/23 01:15:45;;;;;;;26.92;15.10;;;;;;;;;;5071963;28;20055;-71
2021/03/23 01:18:12;;;;;;;24.55;14.60;;;;;;;;;;5053868;28;20446;-72
2021/03/23 01:20:39;;;;;;;23.40;15.23;;;;;;;;;;5054308;28;20052;-72
2021/03/23 01:23:06;;;;;;;30.05;15.85;;;;;;;;;;5071983;28;20037;-72
2021/03/23 01:25:33;;;;;;;25.65;14.98;;;;;;;;;;5072122;28;20072;-71
2021/03/23 01:28:00;;;;;;;23.77;15.82;;;;;;;;;;5072006;28;20055;-71
2021/03/23 01:30:28;;;;;;;33.78;15.32;;;12.50;49.00;;;;;;5071827;28;20041;-72
2021/03/23 01:32:57;;;;;;;24.52;15.32;;;;;;;;;;5035786;28;20128;-73
2021/03/23 01:35:25;;;;;;;29.38;15.10;;;12.50;48.70;;;;;;5071861;28;20040;-70
2021/03/23 01:37:53;;;;;;;28.42;16.02;;;;;;;;;;5053923;28;20052;-71
2021/03/23 01:40:23;;;;;;;28.40;15.77;;;12.50;48.90;;;;;;5071366;28;20044;-72
2021/03/23 01:42:55;;;;;;;25.02;15.65;;;12.50;48.80;;;;;;5071615;28;20048;-71
2021/03/23 01:45:38;;;;;;;35.28;18.08;;;12.40;48.60;;;;;;5053665;28;20048;-71
2021/03/23 01:48:17;;;;;;;28.33;17.33;;;12.40;48.70;;;;;;5070792;28;20052;-72
2021/03/23 01:50:54;;;;;;;30.30;18.58;;;12.50;48.60;;;;;;5053706;28;20048;-71
2021/03/23 01:53:38;;;;;;;31.83;18.30;;;12.50;48.50;;;;;;5071126;28;20044;-70
2021/03/23 01:56:07;;;;;;;29.60;18.63;;;12.40;48.60;;;;;;5071411;28;20063;-70
2021/03/23 01:58:49;;;;;;;37.10;19.63;;;12.40;48.50;;;;;;5057771;28;20054;-70
2021/03/23 02:01:18;;;;;;;33.03;20.23;;;12.20;48.50;;;;;;5071469;28;20049;-70
2021/03/23 02:03:49;;;;;;;32.63;19.45;;;12.20;48.60;;;;;;5070848;28;20499;-70
2021/03/23 02:06:28;;;;;;;34.53;18.92;;;;;;;;;;5071228;28;20053;-70
2021/03/23 02:09:00;;;;;;;31.23;18.95;;;12.10;48.30;;;;;;5071079;28;20072;-72
2021/03/23 02:11:29;;;;;;;32.50;20.08;;;12.10;48.70;;;;;;5071686;28;20032;-71
2021/03/23 02:13:56;;;;;;;34.35;20.30;;;;;;;;;;5071388;28;20041;-71
2021/03/23 02:16:23;;;;;;;35.30;19.10;;;;;;;;;;5070969;28;20040;-71
2021/03/23 02:18:51;;;;;;;32.15;19.65;;;;;;;;;;5071151;28;20045;-71
2021/03/23 02:21:20;;;;;;;36.58;20.27;;;12.30;48.00;;;;;;5071519;28;20052;-71
2021/03/23 02:23:51;;;;;;;36.05;19.35;;;12.20;48.30;;;;;;5071144;28;20044;-71
2021/03/23 02:26:27;;;;;;;32.17;18.67;;;12.20;48.10;;;;;;5071624;28;20032;-72
2021/03/23 02:29:08;;;;;;;30.48;17.88;;;12.10;48.10;;;;;;5071656;28;20052;-71
2021/03/23 02:31:45;;;;;;;32.15;19.38;;;11.90;48.00;;;;;;5073639;28;20125;-71
2021/03/23 02:34:15;;;;;;;31.90;18.90;;;12.10;48.20;;;;;;5056299;28;20032;-71
2021/03/23 02:36:44;;;;;;;32.13;18.52;;;12.20;48.10;;;;;;5074570;28;20498;-70
2021/03/23 02:39:21;;;;;;;33.17;18.42;;;12.20;47.90;;;;;;5073057;28;20044;-71
2021/03/23 02:41:48;;;;;;;29.92;18.20;;;;;;;;;;5071452;28;20048;-70
2021/03/23 02:44:16;;;;;;;35.50;17.83;;;;;;;;;;5072292;28;20044;-71
2021/03/23 02:46:43;;;;;;;34.95;17.90;;;;;;;;;;5073008;28;20094;-70
2021/03/23 02:49:11;;;;;;;31.60;18.20;;;12.00;48.80;;;;;;5073636;28;20514;-72
2021/03/23 02:51:38;;;;;;;35.28;18.08;;;;;;;;;;5071577;28;20056;-71
2021/03/23 02:54:05;;;;;;;36.97;17.67;;;;;;;;;;5071291;28;20048;-72
2021/03/23 02:56:32;;;;;;;32.40;16.98;;;;;;;;;;5072674;28;20045;-72
2021/03/23 02:59:00;;;;;;;32.05;18.02;;;;;;;;;;5075289;28;20082;-71
2021/03/23 03:01:27;;;;;;;29.80;17.33;;;;;;;;;;5075536;28;20082;-72
2021/03/23 03:03:54;;;;;;;34.03;18.30;;;;;;;;;;5076788;28;20422;-71
2021/03/23 03:06:22;;;;;;;29.33;17.17;;;;;;;;;;5075677;28;20048;-71
2021/03/23 03:08:49;;;;;;;30.95;17.95;;;;;;;;;;5075745;28;20388;-70
2021/03/23 03:11:16;;;;;;;32.03;17.63;;;;;;;;;;5059380;28;20074;-71
2021/03/23 03:13:43;;;;;;;30.88;15.93;;;;;;;;;;5076746;28;20543;-71
2021/03/23 03:16:10;;;;;;;36.15;18.42;;;;;;;;;;5075515;28;20044;-69
2021/03/23 03:18:37;;;;;;;28.73;15.85;;;;;;;;;;5074785;28;20044;-72
2021/03/23 03:21:04;;;;;;;29.67;15.55;;;;;;;;;;5074828;28;20040;-71
2021/03/23 03:23:31;;;;;;;29.90;17.25;;;;;;;;;;5074420;28;20041;-71
2021/03/23 03:26:02;;;;;;;32.72;17.08;;;12.00;49.00;;;;;;5056470;28;20043;-70
2021/03/23 03:28:29;;;;;;;31.73;16.15;;;;;;;;;;5074198;28;20044;-72
2021/03/23 03:30:56;;;;;;;32.25;16.75;;;;;;;;;;5074207;28;20406;-70
2021/03/23 03:33:23;;;;;;;29.20;15.00;;;;;;;;;;5094381;28;20117;-70
2021/03/23 03:35:54;;;;;;;34.83;16.85;;;11.90;49.20;;;;;;5076984;28;20060;-70
2021/03/23 03:38:24;;;;;;;32.88;16.27;;;11.90;49.10;;;;;;5094112;28;20055;-70
2021/03/23 03:40:57;;;;;;;29.80;16.55;;;11.90;49.10;;;;;;5078496;28;20125;-72
2021/03/23 03:43:28;;;;;;;28.92;15.45;;;11.90;49.10;;;;;;5086162;28;20445;-71
2021/03/23 03:45:55;;;;;;;30.92;15.43;;;11.90;49.50;;;;;;5094194;28;20050;-71
2021/03/23 03:48:22;;;;;;;26.77;15.43;;;;;;;;;;5094123;28;20389;-71
2021/03/23 03:50:50;;;;;;;31.95;15.88;;;;;;;;;;5093841;28;20040;-71
2021/03/23 03:53:17;;;;;;;28.73;15.20;;;;;;;;;;5093987;28;20044;-70
2021/03/23 03:55:45;;;;;;;32.13;15.80;;;12.10;49.10;;;;;;5093455;28;20083;-71
2021/03/23 03:58:13;;;;;;;38.15;16.20;;;11.90;49.50;;;;;;5093683;28;20032;-69
2021/03/23 04:00:40;;;;;;;36.17;16.20;;;;;;;;;;5076429;28;20028;-71
2021/03/23 04:03:14;;;;;;;35.47;17.48;;;12.10;49.20;;;;;;5077893;28;20056;-71
2021/03/23 04:05:43;;;;;;;32.53;14.50;;;12.10;49.00;;;;;;5094455;28;20047;-71
2021/03/23 04:08:11;;;;;;;27.33;14.93;;;12.20;48.80;;;;;;5093954;28;20094;-71
2021/03/23 04:10:39;;;;;;;33.03;15.30;;;;;;;;;;5094148;28;20051;-70
2021/03/23 04:13:06;;;;;;;35.65;15.27;;;;;;;;;;5075232;28;20121;-71
2021/03/23 04:15:42;;;;;;;37.08;15.35;;;12.20;48.80;;;;;;5092904;28;20524;-71
2021/03/23 04:18:11;;;;;;;32.55;14.43;;;12.20;48.80;;;;;;5093291;28;20342;-70
2021/03/23 04:20:38;;;;;;;34.13;16.38;;;12.10;49.40;;;;;;5093461;28;20076;-72
2021/03/23 04:23:07;;;;;;;34.28;14.55;;;12.10;49.30;;;;;;5093062;28;20043;-71
2021/03/23 04:25:34;;;;;;;30.08;15.77;;;;;;;;;;5093244;28;20125;-72
2021/03/23 04:28:02;;;;;;;29.20;14.60;;;;;;;;;;5092874;28;20048;-71
2021/03/23 04:30:29;;;;;;;30.55;15.75;;;12.00;49.60;;;;;;5093221;28;20040;-71
2021/03/23 04:32:57;;;;;;;29.60;14.88;;;;;;;;;;5092878;28;20043;-71
2021/03/23 04:35:41;;;;;;;30.77;15.32;;;12.10;49.50;;;;;;5093149;28;20040;-71
2021/03/23 04:38:10;;;;;;;36.60;15.35;;;12.20;49.30;;;;;;5093078;28;20051;-72
2021/03/23 04:40:37;;;;;;;33.13;15.48;;;;;;;;;;5079452;28;20064;-72
2021/03/23 04:43:05;;;;;;;33.00;16.40;;;12.20;49.40;;;;;;5054466;28;20048;-72
2021/03/23 04:45:32;;;;;;;31.70;15.60;;;;;;;;;;5072718;28;20070;-71
2021/03/23 04:47:59;;;;;;;35.35;16.63;;;;;;;;;;5054598;28;20048;-71
2021/03/23 04:50:27;;;;;;;43.38;16.63;;;;;;;;;;5072549;28;20098;-71
2021/03/23 04:52:54;;;;;;;34.97;17.58;;;;;;;;;;5038380;28;20094;-71
2021/03/23 04:55:21;;;;;;;28.50;15.77;;;;;;;;;;5054558;28;20043;-69
2021/03/23 04:57:48;;;;;;;37.47;16.10;;;;;;;;;;5071951;28;20070;-71
2021/03/23 05:00:16;;;;;;;35.10;15.90;;;;;;;;;;5038048;28;20044;-72
2021/03/23 05:02:43;;;;;;;34.03;16.50;;;;;;;;;;5054156;28;20044;-71
2021/03/23 05:05:11;;;;;;;35.17;16.23;;;12.10;49.50;;;;;;5071830;28;20044;-72
2021/03/23 05:07:38;;;;;;;31.50;16.40;;;;;;;;;;5072576;28;20098;-72
2021/03/23 05:10:10;;;;;;;37.25;17.08;;;12.10;49.90;;;;;;5054176;28;20045;-72
2021/03/23 05:12:37;;;;;;;33.42;16.50;;;;;;;;;;5072318;28;20037;-72
2021/03/23 05:15:04;;;;;;;36.38;15.60;;;;;;;;;;5072015;28;20053;-71
2021/03/23 05:17:31;;;;;;;37.38;16.30;;;;;;;;;;5071724;28;20041;-71
2021/03/23 05:19:58;;;;;;;29.73;16.17;;;;;;;;;;5072087;28;20040;-72
2021/03/23 05:22:25;;;;;;;36.55;15.88;;;;;;;;;;5071910;28;20407;-71
2021/03/23 05:24:52;;;;;;;32.80;15.60;;;;;;;;;;5053635;28;20052;-71
2021/03/23 05:27:19;;;;;;;33.47;16.48;;;;;;;;;;5071837;28;20040;-71
2021/03/23 05:29:46;;;;;;;34.65;16.92;;;;;;;;;;5071760;28;20429;-71
2021/03/23 05:32:13;;;;;;;37.92;17.02;;;;;;;;;;5053700;28;20072;-71
2021/03/23 05:34:41;;;;;;;39.20;15.73;;;;;;;;;;5053968;28;20047;-72
2021/03/23 05:37:08;;;;;;;34.17;15.55;;;;;;;;;;5053829;28;20187;-70
2021/03/23 05:39:35;;;;;;;38.92;17.23;;;;;;;;;;5070804;28;20049;-71
2021/03/23 05:42:14;;;;;;;38.65;16.20;;;12.20;50.70;;;;;;5053893;28;20044;-73
2021/03/23 05:44:41;;;;;;;35.67;16.42;;;;;;;;;;5037144;28;20040;-71
2021/03/23 05:47:10;;;;;;;42.63;17.27;;;12.20;50.30;;;;;;5071454;28;20064;-70
2021/03/23 05:49:52;;;;;;;40.42;17.48;;;12.30;50.00;;;;;;5071340;28;20110;-71
2021/03/23 05:52:31;;;;;;;39.88;16.83;;;12.30;50.00;;;;;;5071426;28;20028;-73
2021/03/23 05:55:15;;;;;;;38.50;16.75;;;12.30;50.20;;;;;;5070790;28;20032;-72
2021/03/23 05:57:46;;;;;;;34.90;15.93;;;12.30;50.20;;;;;;5071207;28;20048;-72
2021/03/23 06:00:13;;;;;;;33.05;15.30;;;;;;;;;;5053570;28;20049;-72
2021/03/23 06:02:55;;;;;;;40.95;17.45;;;12.30;50.10;;;;;;5071024;28;20102;-73
2021/03/23 06:05:29;;;;;;;41.75;17.77;;;12.30;50.30;;;;;;5058237;28;20428;-71
2021/03/23 06:08:28;;;;;;;35.38;15.60;;;12.40;50.20;;;;;;5070967;28;20047;-71
2021/03/23 06:11:12;;;;;;;37.85;14.75;;;12.20;50.50;;;;;;5053497;28;20110;-71
2021/03/23 06:13:52;;;;;;;34.03;17.83;;;12.10;50.90;;;;;;5070993;28;20043;-73
2021/03/23 06:16:51;;;;;;;37.17;17.27;;;12.20;50.90;;;;;;5071155;28;20044;-68
2021/03/23 06:19:59;;;;;;;35.03;16.70;;;12.00;50.80;;;;;;5069887;28;20040;-71
2021/03/23 06:22:26;;;;;;;40.83;17.55;;;;;;;;;;4986186;28;20046;-72
2021/03/23 06:25:23;;;;;;;38.45;17.35;;;12.10;51.10;;;;;;4990504;28;20085;-72
2021/03/23 06:27:56;;;;;;;35.72;15.65;;;12.00;51.20;;;;;;4989588;28;20057;-70
2021/03/23 06:30:50;;;;;;;37.67;15.10;;;12.00;51.30;;;;;;4989515;28;20054;-71
2021/03/23 06:33:21;;;;;;;43.95;17.77;;;12.00;51.40;;;;;;4988956;28;20043;-70
2021/03/23 06:35:55;;;;;;;33.97;16.02;;;12.10;51.30;;;;;;4989112;28;20128;-71
2021/03/23 06:38:37;;;;;;;52.42;16.65;;;;;;;;;;4990835;28;20042;-70
2021/03/23 06:41:24;;;;;;;34.03;15.90;;;12.10;51.40;;;;;;4990208;28;20105;-70
2021/03/23 06:43:55;;;;;;;35.58;15.90;;;12.00;51.40;;;;;;4993458;28;20145;-71
2021/03/23 06:46:31;;;;;;;34.70;16.50;;;12.60;52.00;;;;;;4992825;28;20134;-70
2021/03/23 06:49:06;;;;;;;41.15;15.95;;;11.90;52.00;;;;;;4993151;28;20053;-70
2021/03/23 06:51:35;;;;;;;35.70;15.80;;;12.00;51.90;;;;;;4301130;28;10000701;-71
2021/03/23 06:54:18;;;;;;;33.97;15.50;;;12.10;51.70;;;;;;4990267;28;20050;-71
2021/03/23 06:56:46;;;;;;;41.00;15.90;;;;;;;;;;4976636;28;20066;-71
2021/03/23 06:59:19;;;;;;;40.67;17.00;;;12.10;51.90;;;;;;5025765;28;20060;-71
2021/03/23 07:01:51;;;;;;;35.40;16.65;;;12.30;51.70;;;;;;5053867;28;20044;-71
2021/03/23 07:04:35;;;;;;;34.50;15.35;;;12.20;51.70;;;;;;5071592;28;20044;-71
2021/03/23 07:07:17;;;;;;;36.00;17.48;;;12.30;51.90;;;;;;5040270;28;20049;-71
2021/03/23 07:09:46;;;;;;;39.35;16.67;;;12.50;51.60;;;;;;5071923;28;20098;-71
2021/03/23 07:12:13;;;;;;;40.20;16.20;;;;;;;;;;5072110;28;20066;-71
2021/03/23 07:14:43;;;;;;;42.53;17.00;;;12.40;51.60;;;;;;5071360;28;20048;-72
2021/03/23 07:17:10;;;;;;;39.58;17.58;;;;;;;;;;5057466;28;20032;-69
2021/03/23 07:19:53;;;;;;;43.25;17.48;;;12.60;51.50;;;;;;5071812;28;20461;-72
2021/03/23 07:22:44;;;;;;;38.00;17.00;;;12.40;51.80;;;;;;5070981;28;20734;-71
2021/03/23 07:25:35;;;;;;;37.17;17.35;;;12.70;51.80;;;;;;5072092;28;20045;-71
2021/03/23 07:28:29;;;;;;;43.67;18.08;;;12.70;51.50;;;;;;5053832;28;20055;-72
2021/03/23 07:31:17;;;;;;;37.50;16.38;;;12.80;51.50;;;;;;5058988;28;20040;-71
2021/03/23 07:33:50;;;;;;;38.72;17.23;;;12.80;51.30;;;;;;5070788;28;20040;-69
2021/03/23 07:36:33;;;;;;;38.47;17.45;;;12.80;51.60;;;;;;5070748;28;20036;-73
2021/03/23 07:39:43;;;;;;;36.47;18.38;;;12.80;51.70;;;;;;5041246;28;20131;-69
2021/03/23 07:42:38;;;;;;;48.97;18.98;;;12.90;51.70;;;;;;4978969;28;20124;-70
2021/03/23 07:45:06;;;;;;;41.70;16.73;;;;;;;;;;4997711;28;20077;-70
2021/03/23 07:48:01;;;;;;;47.47;20.17;;;12.90;51.90;;;;;;5007411;28;20054;-71
2021/03/23 07:50:34;;;;;;;40.97;18.55;;;13.00;51.80;;;;;;5006072;28;20609;-73
2021/03/23 07:53:20;;;;;;;44.25;19.45;;;12.90;52.00;;;;;;5004842;28;20053;-70
2021/03/23 07:55:49;;;;;;;41.20;19.25;;;12.90;52.30;;;;;;4983983;28;20077;-70
2021/03/23 07:58:37;;;;;;;45.45;19.33;;;12.90;52.50;;;;;;4981364;28;20101;-69
2021/03/23 08:01:15;;;;;;;53.15;21.45;;;12.80;52.60;;;;;;4992565;28;20058;-71
2021/03/23 08:04:05;;;;;;;44.95;19.20;;;12.70;52.80;;;;;;5000400;28;20128;-70
2021/03/23 08:06:33;;;;;;;50.45;21.33;;;;;;;;;;5009384;28;20540;-71
2021/03/23 08:09:18;;;;;;;44.63;21.40;;;12.60;53.10;;;;;;5000751;28;20094;-71
2021/03/23 08:11:45;;;;;;;48.28;20.92;;;;;;;;;;4991622;28;20046;-72
2021/03/23 08:14:42;;;;;;;49.22;21.85;;;12.60;53.50;;;;;;5002997;28;20069;-70
2021/03/23 08:17:27;;;;;;;59.03;22.88;;;12.40;53.80;;;;;;4987357;28;20642;-71
2021/03/23 08:20:29;;;;;;;51.58;23.10;;;12.30;54.00;;;;;;5055885;28;20052;-71
2021/03/23 08:22:57;;;;;;;52.58;21.98;;;;;;;;;;5072289;28;20056;-70
2021/03/23 08:25:40;;;;;;;49.15;23.45;;;12.70;53.70;;;;;;5073827;28;20066;-72
2021/03/23 08:28:25;;;;;;;47.00;23.52;;;12.70;53.40;;;;;;5073429;28;20449;-72
2021/03/23 08:31:16;;;;;;;49.33;22.43;;;12.60;53.90;;;;;;5074238;28;20048;-71
2021/03/23 08:34:02;;;;;;;50.45;23.00;;;12.70;53.60;;;;;;5071819;28;20052;-71
2021/03/23 08:36:38;;;;;;;49.70;25.88;;;12.80;53.70;;;;;;5072572;28;20056;-71
2021/03/23 08:39:10;;;;;;;64.55;27.35;;;12.80;53.70;;;;;;5070048;28;20110;-72
2021/03/23 08:41:37;;;;;;;58.47;25.33;;;;;;;;;;5072981;28;20036;-73
2021/03/23 08:44:13;;;;;;;60.15;27.23;;;12.80;53.60;;;;;;5074239;28;20040;-72
2021/03/23 08:46:40;;;;;;;55.60;26.52;;;;;;;;;;5055560;28;20094;-71
2021/03/23 08:49:17;;;;;;;55.40;26.85;;;12.90;53.50;;;;;;5071347;28;20656;-70
2021/03/23 08:51:50;;;;;;;60.90;27.40;;;12.70;53.50;;;;;;5046310;28;20033;-71
2021/03/23 08:54:43;;;;;;;65.50;29.25;;;12.80;53.80;;;;;;5067311;28;20049;-71
2021/03/23 08:57:10;;;;;;;61.53;28.40;;;;;;;;;;5053843;28;20101;-70
2021/03/23 08:59:37;;;;;;;63.00;29.27;;;;;;;;;;5052001;28;20052;-70
2021/03/23 09:02:07;;;;;;;66.00;30.02;;;13.20;53.20;;;;;;5070572;28;20033;-71
2021/03/23 09:04:35;;;;;;;60.58;29.38;;;13.20;52.30;;;;;;5070800;28;20088;-71
2021/03/23 09:07:07;;;;;;;63.20;29.40;;;13.20;53.30;;;;;;5071140;28;20068;-71
2021/03/23 09:09:41;;;;;;;59.63;28.58;;;13.40;52.30;;;;;;5070888;28;20048;-71
2021/03/23 09:12:08;;;;;;;60.72;30.00;;;;;;;;;;5066743;28;20045;-70
2021/03/23 09:15:10;;;;;;;68.03;31.90;;;13.40;51.70;;;;;;5070019;28;20052;-71
2021/03/23 09:18:01;;;;;;;68.82;32.05;;;13.50;52.30;;;;;;5052349;28;20029;-72
2021/03/23 09:20:35;;;;;;;69.57;34.47;;;13.70;51.60;;;;;;5061829;28;20048;-71
2021/03/23 09:23:21;;;;;;;63.20;32.28;;;13.90;51.50;;;;;;5051857;28;20036;-72
2021/03/23 09:26:01;;;;;;;62.80;33.05;;;13.90;51.50;;;;;;5067938;28;20040;-71
2021/03/23 09:28:32;;;;;;;70.05;35.83;;;14.10;50.70;;;;;;5069464;28;20041;-71
2021/03/23 09:31:09;;;;;;;70.15;36.42;;;14.50;50.30;;;;;;5070678;28;20040;-70
2021/03/23 09:33:42;;;;;;;73.45;36.63;;;14.50;49.50;;;;;;5067819;28;20048;-71
2021/03/23 09:36:11;;;;;;;74.00;38.83;;;;;;;;;;5070073;28;20095;-73
2021/03/23 09:38:54;;;;;;;75.00;36.30;;;14.50;49.50;;;;;;5069746;28;20102;-69
2021/03/23 09:41:21;;;;;;;82.00;40.13;;;;;;;;;;5070414;28;20041;-70
2021/03/23 09:43:50;;;;;;;89.07;39.65;;;14.30;50.10;;;;;;5069208;28;20109;-71
2021/03/23 09:46:23;;;;;;;79.60;39.33;;;14.40;49.90;;;;;;5066830;28;20048;-70
2021/03/23 09:49:10;;;;;;;76.18;40.47;;;14.40;50.00;;;;;;5066999;28;20036;-71
2021/03/23 09:51:58;;;;;;;82.75;41.67;;;14.70;49.70;;;;;;5050350;28;20083;-69
2021/03/23 09:54:26;;;;;;;79.57;40.22;;;;;;;;;;5051463;28;20767;-68
2021/03/23 09:56:56;;;;;;;76.75;37.90;;;14.40;49.80;;;;;;5069872;28;20055;-66
2021/03/23 09:59:32;;;;;;;79.38;39.72;;;14.40;50.20;;;;;;5065383;28;20071;-66
2021/03/23 10:02:02;;;;;;;83.97;41.70;;;;;;;;;;5062106;28;20102;-67
2021/03/23 10:04:30;;;;;;;80.63;41.53;;;;;;;;;;5035271;28;20045;-65
2021/03/23 10:06:57;;;;;;;85.35;41.88;;;;;;;;;;5068878;28;20040;-63
2021/03/23 10:09:30;;;;;;;77.22;39.63;;;14.40;51.40;;;;;;5069698;28;20079;-65
2021/03/23 10:11:58;;;;;;;87.95;41.25;;;14.40;51.40;;;;;;5051010;28;20387;-65
2021/03/23 10:14:28;;;;;;;79.82;40.47;;;14.40;51.00;;;;;;5070245;28;20075;-68
2021/03/23 10:17:22;;;;;;;79.10;41.28;;;14.20;51.40;;;;;;5051146;28;20043;-69
2021/03/23 10:19:52;;;;;;;83.00;41.47;;;14.20;51.60;;;;;;5056071;28;20122;-69
2021/03/23 10:22:34;;;;;;;83.45;38.83;;;13.90;52.10;;;;;;5070522;28;20403;-69
2021/03/23 10:25:06;;;;;;;84.82;41.17;;;14.00;51.90;;;;;;5072235;28;20047;-69
2021/03/23 10:27:35;;;;;;;78.10;39.92;;;14.20;52.30;;;;;;5070773;28;20036;-70
2021/03/23 10:30:09;;;;;;;79.63;38.78;;;14.10;51.80;;;;;;5050766;28;20068;-68
2021/03/23 10:32:44;;;;;;;83.57;40.05;;;14.30;52.00;;;;;;5068026;28;20067;-66
2021/03/23 10:35:26;;;;;;;80.35;38.70;;;14.30;51.10;;;;;;5066248;28;20036;-67
2021/03/23 10:38:12;;;;;;;84.53;40.92;;;14.30;51.70;;;;;;5051658;28;20098;-67
2021/03/23 10:40:39;;;;;;;83.72;39.55;;;;;;;;;;5068822;28;20064;-65
2021/03/23 10:43:06;;;;;;;74.65;37.47;;;;;;;;;;5068831;28;20079;-65
2021/03/23 10:45:33;;;;;;;82.00;37.85;;;;;;;;;;5070011;28;20048;-66
2021/03/23 10:48:00;;;;;;;74.53;37.38;;;;;;;;;;5068424;28;20137;-66
2021/03/23 10:50:29;;;;;;;73.65;38.10;;;14.50;51.00;;;;;;5076663;28;20044;-68
2021/03/23 10:53:20;;;;;;;76.68;35.75;;;14.50;51.00;;;;;;5070401;28;20094;-66
2021/03/23 10:55:52;;;;;;;73.22;34.95;;;14.30;51.80;;;;;;5034651;28;20048;-65
2021/03/23 10:58:18;;;;;;;75.38;35.75;;;14.30;51.70;;;;;;5069513;28;20052;-65
2021/03/23 11:00:48;;;;;;;71.20;34.72;;;14.40;52.00;;;;;;5070222;28;20048;-67
2021/03/23 11:03:16;;;;;;;74.07;35.05;;;;;;;;;;5070119;28;20115;-66
2021/03/23 11:05:47;;;;;;;81.65;36.92;;;14.40;51.60;;;;;;5070148;28;20110;-67
2021/03/23 11:08:15;;;;;;;77.50;35.28;;;14.80;51.50;;;;;;5035197;28;20084;-65
2021/03/23 11:10:43;;;;;;;75.35;33.70;;;15.00;50.10;;;;;;5052421;28;20052;-66
2021/03/23 11:13:14;;;;;;;66.45;31.40;;;15.00;49.90;;;;;;5069694;28;20047;-65
2021/03/23 11:15:44;;;;;;;75.75;33.72;;;15.00;49.00;;;;;;5069939;28;20044;-65
2021/03/23 11:18:16;;;;;;;76.25;34.03;;;14.90;49.50;;;;;;5069803;28;20041;-67
2021/03/23 11:20:46;;;;;;;65.38;29.77;;;14.80;50.10;;;;;;5051955;28;20044;-66
2021/03/23 11:23:34;;;;;;;62.35;30.25;;;14.80;49.60;;;;;;5069569;28;20041;-66
2021/03/23 11:26:03;;;;;;;65.75;28.65;;;14.70;50.00;;;;;;5055955;28;20090;-67
2021/03/23 11:28:30;;;;;;;61.35;29.77;;;14.80;50.20;;;;;;5073155;28;20055;-67
2021/03/23 11:31:00;;;;;;;65.47;27.13;;;14.70;50.20;;;;;;5073298;28;20076;-67
2021/03/23 11:33:28;;;;;;;58.22;26.65;;;;;;;;;;5055208;28;20044;-64
2021/03/23 11:35:55;;;;;;;57.95;26.30;;;14.90;49.70;;;;;;5073568;28;20051;-65
2021/03/23 11:38:22;;;;;;;;;;;14.90;50.20;;;;;;5073556;28;20109;-67
2021/03/23 11:40:52;;;;;;;58.72;26.58;;;14.80;49.70;;;;;;5072633;28;19920;-65
2021/03/23 11:43:30;;;;;;;58.72;27.55;;;14.80;50.80;;;;;;5070044;28;20118;-66
2021/03/23 11:46:25;;;;;;;57.80;28.17;;;15.20;49.00;;;;;;5054426;28;20056;-66
2021/03/23 11:49:05;;;;;;;55.47;26.52;;;15.30;49.00;;;;;;5055165;28;20517;-66
2021/03/23 11:51:32;;;;;;;61.97;26.40;;;;;;;;;;5071992;28;20040;-66
2021/03/23 11:53:59;;;;;;;52.80;27.10;;;15.40;49.00;;;;;;5072274;28;20044;-65
2021/03/23 11:56:25;;;;;;;53.63;26.60;;;15.50;48.60;;;;;;5071647;28;20121;-67
2021/03/23 11:58:54;;;;;;;55.83;28.30;;;15.40;49.60;;;;;;5072493;28;20124;-64
2021/03/23 12:01:24;;;;;;;56.28;26.20;;;15.60;49.00;;;;;;5071941;28;20052;-66
2021/03/23 12:03:52;;;;;;;57.83;27.00;;;15.80;48.10;;;;;;5072479;28;20354;-67
2021/03/23 12:06:36;;;;;;;63.17;27.92;;;15.90;48.20;;;;;;5054986;28;20040;-67
2021/03/23 12:09:14;;;;;;;54.83;26.17;;;16.10;48.30;;;;;;5061752;28;20052;-66
2021/03/23 12:11:51;;;;;;;57.25;27.13;;;16.00;47.90;;;;;;5053943;28;20075;-66
2021/03/23 12:14:42;;;;;;;54.53;26.63;;;15.80;48.60;;;;;;5054655;28;20075;-66
2021/03/23 12:17:11;;;;;;;54.47;26.65;;;15.70;48.20;;;;;;5072518;28;20102;-67
2021/03/23 12:19:47;;;;;;;55.20;25.65;;;15.70;47.80;;;;;;5072143;28;20461;-65
2021/03/23 12:22:15;;;;;;;;;;;15.70;48.40;;;;;;5054587;28;20040;-67
2021/03/23 12:24:42;;;;;;;54.85;25.25;;;16.40;47.10;;;;;;5072252;28;19928;-66
2021/03/23 12:27:10;;;;;;;56.80;25.55;;;16.40;47.00;;;;;;5071941;28;20064;-66
2021/03/23 12:29:40;;;;;;;54.72;24.95;;;16.40;48.20;;;;;;5071954;28;20078;-65
2021/03/23 12:32:10;;;;;;;43.78;23.23;;;16.40;46.30;;;;;;5072182;28;20116;-65
2021/03/23 12:34:38;;;;;;;51.95;24.17;;;16.50;46.60;;;;;;5072302;28;20136;-66
2021/03/23 12:37:05;;;;;;;50.17;24.23;;;16.60;45.70;;;;;;5071533;28;20056;-65
2021/03/23 12:39:32;;;;;;;54.65;25.33;;;16.70;46.50;;;;;;5053816;28;20036;-65
2021/03/23 12:42:00;;;;;;;52.33;24.58;;;16.70;47.00;;;;;;5052358;28;20502;-64
2021/03/23 12:44:27;;;;;;;46.33;24.20;;;16.50;47.20;;;;;;5076683;28;20070;-65
2021/03/23 12:46:54;;;;;;;49.78;24.60;;;16.60;47.30;;;;;;5069334;28;20127;-66
2021/03/23 12:49:21;;;;;;;52.70;25.70;;;16.70;46.60;;;;;;5070920;28;20525;-68
2021/03/23 12:51:51;;;;;;;47.78;23.27;;;16.70;47.30;;;;;;5071164;28;20048;-66
2021/03/23 12:54:24;;;;;;;46.95;23.92;;;17.00;46.00;;;;;;5053200;28;20114;-66
2021/03/23 12:56:51;;;;;;;48.72;23.35;;;17.20;45.40;;;;;;5018101;28;20483;-66
2021/03/23 12:59:26;;;;;;;51.38;26.40;;;17.20;45.50;;;;;;5064615;28;20040;-65
2021/03/23 13:01:54;;;;;;;51.45;23.88;;;17.10;45.80;;;;;;5070840;28;20112;-69
2021/03/23 13:04:23;;;;;;;55.88;25.45;;;17.10;45.90;;;;;;5071320;28;20099;-69
2021/03/23 13:06:56;;;;;;;47.78;22.63;;;17.40;45.10;;;;;;5052943;28;20495;-70
2021/03/23 13:09:26;;;;;;;46.00;23.55;;;17.40;45.70;;;;;;5052470;28;20055;-68
2021/03/23 13:11:53;;;;;;;47.55;24.95;;;17.60;45.10;;;;;;5071069;28;20059;-68
2021/03/23 13:14:28;;;;;;;47.63;23.85;;;17.60;44.90;;;;;;5053110;28;20383;-69
2021/03/23 13:16:55;;;;;;;45.75;23.13;;;17.60;45.30;;;;;;5070966;28;20101;-68
2021/03/23 13:19:23;;;;;;;47.72;23.50;;;17.30;44.70;;;;;;5071294;28;20052;-67
2021/03/23 13:21:57;;;;;;;50.33;24.65;;;17.20;45.60;;;;;;5036365;28;20127;-65
2021/03/23 13:24:41;;;;;;;43.72;22.83;;;17.20;45.20;;;;;;5068079;28;20387;-66
2021/03/23 13:27:35;;;;;;;43.03;22.63;;;16.90;44.70;;;;;;5067628;28;20036;-67
2021/03/23 13:30:22;;;;;;;42.60;22.65;;;16.80;46.20;;;;;;5071005;28;20048;-69
2021/03/23 13:32:49;;;;;;;46.60;23.15;;;16.70;46.50;;;;;;5048418;28;20055;-67